Time;durP1;ratioP1;P1;durP2;ratioP2;P2;SDS_P1;SDS_P2;PMS_P1;PMS_P2;Temp;Humidity;BMP_temperature;BMP_pressure;BME280_temperature;BME280_humidity;BME280_pressure;Samples;Min_cycle;Max_cycle;Signal;HPM_P1;HPM_P2
2020/12/05 00:00:22;;;;;;;45.43;24.27;;;;;;;4.07;77.46;99791.33;1696224;83;26088;-81
2020/12/05 00:02:51;;;;;;;46.70;24.80;;;;;;;4.08;77.48;99794.32;1640127;83;26341;-81
2020/12/05 00:05:18;;;;;;;47.78;22.48;;;;;;;4.09;77.47;99785.36;1653427;83;26326;-81
2020/12/05 00:07:46;;;;;;;41.13;21.17;;;;;;;4.09;77.48;99798.13;1666904;84;25792;-81
2020/12/05 00:10:13;;;;;;;43.78;22.17;;;;;;;4.10;77.49;99791.84;1695284;83;26753;-80
2020/12/05 00:12:40;;;;;;;47.27;25.12;;;;;;;4.12;77.50;99803.59;1626387;83;25932;-82
2020/12/05 00:15:07;;;;;;;48.28;24.10;;;;;;;4.13;77.51;99798.64;1700919;83;27542;-81
2020/12/05 00:17:35;;;;;;;39.20;21.60;;;;;;;4.14;77.50;99810.39;1676172;83;25936;-81
2020/12/05 00:20:03;;;;;;;40.58;22.17;;;;;;;4.16;77.48;99808.89;1699186;83;25731;-81
2020/12/05 00:22:30;;;;;;;48.13;23.15;;;;;;;4.18;77.46;99817.51;1657600;83;25923;-81
2020/12/05 00:24:58;;;;;;;49.55;24.07;;;;;;;4.19;77.46;99814.69;1666624;84;25939;-81
2020/12/05 00:27:25;;;;;;;46.75;24.55;;;;;;;4.21;77.45;99822.00;1677932;83;28247;-81
2020/12/05 00:29:52;;;;;;;47.98;24.15;;;;;;;4.21;77.42;99827.80;1680762;84;25774;-81
2020/12/05 00:32:21;;;;;;;43.17;23.12;;;;;;;4.23;77.42;99823.98;1632975;83;25917;-81
2020/12/05 00:34:48;;;;;;;40.92;21.85;;;;;;;4.25;77.39;99821.17;1657343;83;26156;-81
2020/12/05 00:37:16;;;;;;;43.52;23.15;;;;;;;4.23;77.36;99816.04;1664426;83;25935;-81
2020/12/05 00:39:43;;;;;;;43.20;21.95;;;;;;;4.23;77.41;99812.06;1698461;83;27704;-81
2020/12/05 00:42:10;;;;;;;48.30;24.23;;;;;;;4.24;77.39;99816.36;1645509;84;25935;-80
2020/12/05 00:44:38;;;;;;;41.37;24.07;;;;;;;4.26;77.41;99813.53;1656561;84;25950;-81
2020/12/05 00:47:15;;;;;;;45.38;23.22;;;;;;;4.32;77.35;99809.72;1814122;77;25700;-81
2020/12/05 00:49:43;;;;;;;48.58;26.73;;;;;;;4.27;77.35;99812.55;1689289;81;26078;-81
2020/12/05 00:52:10;;;;;;;47.15;21.65;;;;;;;4.27;77.39;99817.36;1695242;83;27554;-81
2020/12/05 00:54:37;;;;;;;51.33;25.17;;;;;;;4.28;77.39;99819.00;1742527;81;25763;-82
2020/12/05 00:57:05;;;;;;;51.25;26.52;;;;;;;4.30;77.43;99820.98;1685275;83;25378;-81
2020/12/05 00:59:33;;;;;;;45.58;25.12;;;;;;;4.32;77.40;99827.47;1686311;81;25848;-81
2020/12/05 01:02:00;;;;;;;44.98;24.07;;;;;;;4.33;77.38;99821.16;1681383;82;25812;-81
2020/12/05 01:04:27;;;;;;;46.15;24.55;;;;;;;4.35;77.40;99807.23;1721215;81;27592;-81
2020/12/05 01:06:55;;;;;;;41.53;21.65;;;;;;;4.36;77.40;99810.23;1679522;83;25904;-81
2020/12/05 01:09:22;;;;;;;42.38;21.27;;;;;;;4.38;77.38;99810.41;1685910;81;26501;-80
2020/12/05 01:11:50;;;;;;;46.05;24.92;;;;;;;4.39;77.35;99813.86;1714498;81;25868;-81
2020/12/05 01:14:17;;;;;;;49.23;25.82;;;;;;;4.41;77.39;99811.88;1723427;81;26067;-82
2020/12/05 01:16:45;;;;;;;43.55;23.35;;;;;;;4.41;77.34;99814.52;1708301;80;27776;-81
2020/12/05 01:19:13;;;;;;;51.02;24.87;;;;;;;4.42;77.35;99818.84;1666279;83;26157;-82
2020/12/05 01:21:40;;;;;;;53.70;25.10;;;;;;;4.41;77.34;99818.02;1710820;81;25385;-82
2020/12/05 01:24:07;;;;;;;54.33;26.05;;;;;;;4.45;77.34;99826.45;1719940;81;26258;-82
2020/12/05 01:26:34;;;;;;;52.17;24.90;;;;;;;4.45;77.33;99825.13;1702541;81;25895;-81
2020/12/05 01:29:02;;;;;;;58.20;25.40;;;;;;;4.45;77.33;99829.94;1712739;81;28442;-82
2020/12/05 01:31:29;;;;;;;57.58;25.85;;;;;;;4.48;77.29;99827.45;1726895;81;25833;-81
2020/12/05 01:34:02;;;;;;;69.70;30.05;;;;;;;4.50;77.25;99832.09;1731793;81;25875;-81
2020/12/05 01:36:25;;;;;;;56.70;27.05;;;;;;;4.49;77.27;99835.23;1686668;81;26428;-81
2020/12/05 01:38:53;;;;;;;52.53;25.25;;;;;;;4.53;77.23;99837.08;1649406;82;25854;-81
2020/12/05 01:41:20;;;;;;;55.70;25.60;;;;;;;4.53;77.18;99827.27;1720311;81;28479;-81
2020/12/05 01:43:47;;;;;;;45.55;23.77;;;;;;;4.56;77.20;99827.44;1733480;81;25377;-81
2020/12/05 01:46:33;;;;;;;51.13;24.20;;;;;;;4.56;77.22;99832.26;1691562;81;25951;-81
2020/12/05 01:49:00;;;;;;;40.98;21.48;;;;;;;4.60;77.17;99834.06;1699683;83;26121;-80
2020/12/05 01:51:28;;;;;;;48.90;23.38;;;;;;;4.61;77.15;99832.59;1714601;81;25945;-82
2020/12/05 01:53:56;;;;;;;47.25;24.05;;;;;;;4.63;77.14;99831.09;1750456;81;28586;-81
2020/12/05 01:56:27;;;;;;;47.73;22.65;;;;;;;4.64;77.09;99820.83;1705718;81;25835;-82
2020/12/05 01:58:54;;;;;;;;;;;;;;;4.67;77.10;99823.13;1691064;81;26162;-81
2020/12/05 02:01:25;;;;;;;45.48;23.52;;;;;;;4.67;77.06;99830.59;1689179;83;26458;-81
2020/12/05 02:03:59;;;;;;;46.70;24.98;;;;;;;4.68;77.06;99816.84;1683995;81;26170;-81
2020/12/05 02:06:57;;;;;;;42.38;21.68;;;;;;;4.69;77.05;99817.99;1693933;81;27545;-81
2020/12/05 02:09:32;;;;;;;41.10;20.27;;;;;;;4.72;77.01;99809.36;1737551;80;25836;-81
2020/12/05 02:12:14;;;;;;;37.20;20.57;;;;;;;4.74;76.89;99806.88;1679129;81;25838;-80
2020/12/05 02:14:44;;;;;;;37.55;19.20;;;;;;;4.78;77.02;99813.98;1703700;81;25706;-80
2020/12/05 02:17:14;;;;;;;35.30;18.98;;;;;;;4.82;76.94;99809.51;1715116;81;25764;-80
2020/12/05 02:19:50;;;;;;;34.45;19.62;;;;;;;4.84;76.85;99810.66;1710416;81;27527;-80
2020/12/05 02:22:31;;;;;;;36.33;19.30;;;;;;;4.86;76.80;99812.64;1731037;80;25874;-80
2020/12/05 02:25:00;;;;;;;39.35;21.50;;;;;;;4.86;76.79;99810.83;1684499;81;25753;-80
2020/12/05 02:27:31;;;;;;;38.40;20.40;;;;;;;4.86;76.70;99804.19;1684866;82;26539;-80
2020/12/05 02:29:58;;;;;;;38.15;21.60;;;;;;;4.86;76.64;99804.68;1680538;81;25814;-81
2020/12/05 02:32:26;;;;;;;38.05;20.48;;;;;;;4.86;76.60;99807.33;1710295;81;27336;-81
2020/12/05 02:34:54;;;;;;;37.25;20.35;;;;;;;4.84;76.53;99785.45;1729325;80;26430;-81
2020/12/05 02:37:27;;;;;;;41.40;21.50;;;;;;;4.83;76.48;99789.12;1699784;81;25874;-80
2020/12/05 02:39:56;;;;;;;35.30;19.60;;;;;;;4.83;76.53;99797.91;1695976;81;26518;-81
2020/12/05 02:42:24;;;;;;;35.80;20.65;;;;;;;4.79;76.43;99793.91;1674361;83;25940;-81
2020/12/05 02:44:53;;;;;;;36.68;19.90;;;;;;;4.79;76.50;99806.38;1680081;83;27322;-81
2020/12/05 02:47:22;;;;;;;36.58;18.40;;;;;;;4.78;76.53;99803.37;1654716;81;25962;-80
2020/12/05 02:49:49;;;;;;;33.63;19.00;;;;;;;4.78;76.51;99809.52;1711891;81;25984;-80
2020/12/05 02:52:17;;;;;;;41.65;21.57;;;;;;;4.78;76.62;99808.20;1721384;81;25850;-83
2020/12/05 02:54:44;;;;;;;39.05;22.98;;;;;;;4.81;76.63;99803.05;1675482;82;25584;-80
2020/12/05 02:57:12;;;;;;;39.00;22.35;;;;;;;4.83;76.57;99811.17;1682676;81;28504;-80
2020/12/05 02:59:40;;;;;;;39.10;22.10;;;;;;;4.83;76.45;99807.20;1697377;83;26423;-80
2020/12/05 03:02:08;;;;;;;37.40;19.73;;;;;;;4.84;76.40;99811.98;1710602;81;25767;-81
2020/12/05 03:04:35;;;;;;;37.03;20.08;;;;;;;4.81;76.39;99813.66;1710401;81;25777;-81
2020/12/05 03:07:05;;;;;;;48.48;23.30;;;;;;;4.80;76.40;99817.30;1674275;81;26068;-80
2020/12/05 03:09:33;;;;;;;44.27;21.77;;;;;;;4.77;76.43;99814.48;1703500;83;27550;-80
2020/12/05 03:12:01;;;;;;;40.55;20.77;;;;;;;4.77;76.44;99812.35;1693301;83;25859;-81
2020/12/05 03:14:28;;;;;;;39.13;20.52;;;;;;;4.75;76.45;99811.17;1682720;81;26164;-81
2020/12/05 03:16:55;;;;;;;35.55;18.62;;;;;;;4.74;76.43;99810.86;1682206;81;25798;-81
2020/12/05 03:19:22;;;;;;;31.27;17.12;;;;;;;4.73;76.46;99805.73;1690042;81;25754;-80
2020/12/05 03:21:50;;;;;;;33.42;18.25;;;;;;;4.71;76.53;99804.55;1680219;81;27427;-81
2020/12/05 03:24:17;;;;;;;30.65;18.50;;;;;;;4.67;76.56;99796.11;1687262;81;25811;-81
2020/12/05 03:26:45;;;;;;;34.27;17.30;;;;;;;4.65;76.63;99810.04;1667226;82;25933;-80
2020/12/05 03:29:12;;;;;;;29.87;17.70;;;;;;;4.66;76.68;99813.53;1707262;81;25511;-81
2020/12/05 03:34:10;;;;;;;34.23;17.75;;;;;;;4.62;76.73;99817.00;1681002;81;27630;-82
2020/12/05 03:36:38;;;;;;;33.83;18.25;;;;;;;4.60;76.80;99818.16;1735023;80;25878;-81
2020/12/05 03:39:05;;;;;;;33.10;18.60;;;;;;;4.59;76.82;99817.84;1729152;80;25865;-81
2020/12/05 03:41:33;;;;;;;32.80;18.15;;;;;;;4.59;76.89;99817.34;1715983;81;25891;-81
2020/12/05 03:44:00;;;;;;;30.72;18.70;;;;;;;4.58;76.89;99814.35;1700604;80;25788;-81
2020/12/05 03:46:27;;;;;;;29.67;16.35;;;;;;;4.58;76.88;99817.00;1650132;81;28504;-81
2020/12/05 03:48:55;;;;;;;33.38;17.77;;;;;;;4.58;76.91;99814.35;1680592;83;25856;-82
2020/12/05 03:51:22;;;;;;;31.35;18.48;;;;;;;4.57;76.92;99815.36;1705520;81;25972;-81
2020/12/05 03:53:49;;;;;;;37.83;19.25;;;;;;;4.57;76.94;99810.06;1687120;81;25883;-80
2020/12/05 03:56:17;;;;;;;33.38;17.45;;;;;;;4.57;76.97;99805.25;1695713;81;25722;-80
2020/12/05 03:58:44;;;;;;;33.78;18.90;;;;;;;4.56;76.97;99802.25;1708390;81;28476;-81
2020/12/05 04:01:11;;;;;;;29.75;17.45;;;;;;;4.56;76.99;99801.76;1709844;82;26431;-81
2020/12/05 04:03:39;;;;;;;32.93;18.52;;;;;;;4.56;77.02;99808.39;1677850;81;25669;-80
2020/12/05 04:06:06;;;;;;;35.65;17.60;;;;;;;4.57;77.02;99806.58;1685127;81;26442;-81
2020/12/05 04:08:33;;;;;;;31.55;17.52;;;;;;;4.55;77.02;99808.08;1707507;81;26154;-81
2020/12/05 04:11:01;;;;;;;35.88;18.42;;;;;;;4.53;77.05;99814.02;1682907;82;27332;-81
2020/12/05 04:13:28;;;;;;;33.05;18.25;;;;;;;4.53;77.11;99828.59;1690011;81;26568;-81
2020/12/05 04:15:55;;;;;;;25.90;14.80;;;;;;;4.54;77.11;99828.11;1663200;83;25802;-81
2020/12/05 04:18:23;;;;;;;29.48;16.70;;;;;;;4.54;77.09;99839.55;1708864;81;25794;-80
2020/12/05 04:20:50;;;;;;;31.17;17.15;;;;;;;4.52;77.12;99829.61;1684241;83;26340;-81
2020/12/05 04:23:17;;;;;;;28.05;16.52;;;;;;;4.53;77.15;99823.30;1679484;81;27523;-81
2020/12/05 04:25:45;;;;;;;33.18;18.35;;;;;;;4.52;77.15;99826.13;1719931;81;25816;-80
2020/12/05 04:28:12;;;;;;;32.95;19.17;;;;;;;4.54;77.24;99829.44;1694663;83;25874;-81
2020/12/05 04:30:40;;;;;;;33.02;17.90;;;;;;;4.54;77.25;99829.44;1682157;84;25488;-80
2020/12/05 04:33:07;;;;;;;28.60;17.80;;;;;;;4.56;77.23;99834.08;1716711;81;26085;-81
2020/12/05 04:35:35;;;;;;;31.85;17.87;;;;;;;4.57;77.25;99829.95;1728302;81;27541;-81
2020/12/05 04:38:02;;;;;;;30.72;18.12;;;;;;;4.58;77.24;99828.94;1753536;80;26376;-81
2020/12/05 04:40:29;;;;;;;32.95;17.65;;;;;;;4.60;77.26;99829.59;1730269;80;25797;-79
2020/12/05 04:43:00;;;;;;;30.82;17.82;;;;;;;4.63;77.28;99833.75;1729395;80;25926;-81
2020/12/05 04:45:28;;;;;;;34.30;19.25;;;;;;;4.64;77.26;99830.91;1730487;80;25362;-80
2020/12/05 04:47:57;;;;;;;34.90;18.62;;;;;;;4.66;77.25;99840.05;1703872;81;27108;-80
2020/12/05 04:50:25;;;;;;;30.88;17.48;;;;;;;4.67;77.25;99838.55;1703174;81;26180;-81
2020/12/05 04:52:53;;;;;;;32.63;17.82;;;;;;;4.69;77.24;99838.38;1703414;81;25860;-81
2020/12/05 04:55:23;;;;;;;32.67;18.55;;;;;;;4.71;77.23;99843.02;1726918;81;25802;-81
2020/12/05 04:57:57;;;;;;;33.15;19.55;;;;;;;4.73;77.21;99842.88;1726497;81;26133;-80
2020/12/05 05:00:26;;;;;;;32.95;17.92;;;;;;;4.72;77.18;99839.38;1726965;81;28399;-81
2020/12/05 05:02:58;;;;;;;28.47;17.75;;;;;;;4.72;77.18;99851.31;1728111;81;26611;-81
2020/12/05 05:05:26;;;;;;;32.10;18.07;;;;;;;4.73;77.15;99842.88;1727093;81;25780;-81
2020/12/05 05:07:55;;;;;;;31.35;17.82;;;;;;;4.73;77.09;99853.48;1753432;80;26510;-81
2020/12/05 05:10:28;;;;;;;29.82;17.82;;;;;;;4.70;77.09;99852.78;1723576;80;26335;-80
2020/12/05 05:13:23;;;;;;;29.45;16.48;;;;;;;4.72;77.15;99859.77;1755669;80;28568;-80
2020/12/05 05:15:49;;;;;;;27.98;15.70;;;;;;;4.72;77.18;99853.13;1783480;80;25696;-81
2020/12/05 05:18:17;;;;;;;28.02;15.50;;;;;;;4.71;77.23;99853.63;1727675;81;25925;-81
2020/12/05 05:20:46;;;;;;;26.62;15.28;;;;;;;4.70;77.28;99850.66;1695450;81;25824;-82
2020/12/05 05:23:20;;;;;;;24.20;14.75;;;;;;;4.73;77.32;99855.61;1684523;80;25876;-80
2020/12/05 05:25:52;;;;;;;27.02;15.43;;;;;;;4.74;77.33;99848.48;1716644;82;27718;-80
2020/12/05 05:28:30;;;;;;;26.27;14.38;;;;;;;4.74;77.31;99851.98;1715348;81;26524;-80
2020/12/05 05:33:46;;;;;;;27.60;14.30;;;;;;;4.76;77.40;99862.41;1679669;82;26001;-80
2020/12/05 05:36:27;;;;;;;32.40;17.60;;;;;;;4.79;77.37;99868.72;1686987;83;25949;-80
2020/12/05 05:39:12;;;;;;;25.72;15.32;;;;;;;4.79;77.41;99860.77;1706576;81;27331;-81
2020/12/05 05:41:40;;;;;;;25.30;15.85;;;;;;;4.79;77.35;99856.78;1714598;81;26148;-82
2020/12/05 05:44:14;;;;;;;24.75;15.32;;;;;;;4.80;77.32;99862.41;1711082;81;26065;-82
2020/12/05 05:46:48;;;;;;;29.40;17.98;;;;;;;4.79;77.34;99857.59;1709262;81;25621;-80
2020/12/05 05:49:31;;;;;;;30.62;17.17;;;;;;;4.80;77.43;99851.30;1685573;83;26520;-81
2020/12/05 05:52:04;;;;;;;31.75;17.35;;;;;;;4.81;77.45;99854.30;1680589;83;27565;-82
2020/12/05 05:54:36;;;;;;;26.97;17.15;;;;;;;4.84;77.49;99854.44;1671928;83;26139;-81
2020/12/05 05:57:11;;;;;;;;;;;;;;;4.86;77.51;99861.73;1691788;83;25906;-80
2020/12/05 05:59:41;;;;;;;24.43;15.23;;;;;;;4.88;77.46;99875.66;1711620;83;26517;-80
2020/12/05 06:02:11;;;;;;;28.55;17.30;;;;;;;4.86;77.46;99876.32;1640697;83;26276;-81
2020/12/05 06:04:45;;;;;;;31.75;17.92;;;;;;;4.86;77.43;99879.81;1704329;81;27536;-82
2020/12/05 06:07:18;;;;;;;32.33;17.92;;;;;;;4.87;77.35;99885.46;1720138;81;25942;-82
2020/12/05 06:09:52;;;;;;;24.52;15.88;;;;;;;4.85;77.31;99872.86;1716494;82;25824;-80
2020/12/05 06:12:29;;;;;;;29.32;17.05;;;;;;;4.84;77.37;99875.17;1657634;83;26431;-81
2020/12/05 06:14:56;;;;;;;29.60;17.35;;;;;;;4.83;77.39;99878.84;1689148;83;25338;-81
2020/12/05 06:17:24;;;;;;;25.48;15.13;;;;;;;4.85;77.52;99878.66;1744182;81;27542;-81
2020/12/05 06:19:54;;;;;;;25.97;15.75;;;;;;;4.87;77.53;99881.48;1715895;81;25828;-81
2020/12/05 06:22:51;;;;;;;31.10;17.37;;;;;;;4.87;77.52;99890.77;1652491;83;25930;-81
2020/12/05 06:25:21;;;;;;;27.48;16.23;;;;;;;4.88;77.58;99885.77;1713083;81;26163;-80
2020/12/05 06:28:02;;;;;;;27.90;15.83;;;;;;;4.91;77.63;99901.37;1697939;83;26027;-81
2020/12/05 06:30:30;;;;;;;32.63;16.67;;;;;;;4.91;77.59;99893.41;1730769;80;28378;-82
2020/12/05 06:32:58;;;;;;;28.27;16.57;;;;;;;4.92;77.59;99889.75;1704010;82;26252;-82
2020/12/05 06:35:32;;;;;;;23.30;15.32;;;;;;;4.93;77.65;99891.91;1660993;82;25608;-82
2020/12/05 06:38:01;;;;;;;28.77;16.73;;;;;;;4.95;77.64;99900.04;1711331;81;25477;-81
2020/12/05 06:40:28;;;;;;;32.25;18.05;;;;;;;4.97;77.73;99902.52;1712489;81;25797;-81
2020/12/05 06:42:56;;;;;;;30.65;18.17;;;;;;;5.00;77.70;99903.52;1638789;83;27541;-81
2020/12/05 06:45:35;;;;;;;30.95;17.50;;;;;;;5.02;77.69;99906.83;1692222;81;25888;-81
2020/12/05 06:48:14;;;;;;;32.95;17.15;;;;;;;5.04;77.68;99900.86;1685070;83;26600;-81
2020/12/05 06:50:44;;;;;;;26.97;16.17;;;;;;;5.07;77.63;99904.52;1735924;82;25826;-81
2020/12/05 06:53:26;;;;;;;30.60;17.07;;;;;;;5.08;77.60;99918.94;1653841;82;25802;-80
2020/12/05 06:55:54;;;;;;;28.60;15.08;;;;;;;5.08;77.55;99910.97;1690149;83;27556;-81
2020/12/05 06:58:30;;;;;;;28.00;15.98;;;;;;;5.09;77.54;99919.25;1687302;83;26011;-80
2020/12/05 07:00:58;;;;;;;30.92;17.00;;;;;;;5.11;77.53;99925.22;1743303;81;25817;-80
2020/12/05 07:03:29;;;;;;;28.47;16.80;;;;;;;5.14;77.56;99924.89;1691459;81;26581;-80
2020/12/05 07:05:58;;;;;;;28.17;16.42;;;;;;;5.19;77.56;99931.03;1697797;81;25942;-80
2020/12/05 07:08:37;;;;;;;28.20;17.50;;;;;;;5.22;77.56;99924.87;1720525;81;27341;-80
2020/12/05 07:11:13;;;;;;;31.50;18.23;;;;;;;5.25;77.56;99925.04;1718504;81;25804;-81
2020/12/05 07:13:47;;;;;;;29.63;17.90;;;;;;;5.30;77.53;99930.16;1716027;81;25871;-80
2020/12/05 07:16:27;;;;;;;36.50;19.70;;;;;;;5.34;77.48;99938.64;1698690;81;25759;-80
2020/12/05 07:18:56;;;;;;;28.57;15.63;;;;;;;5.39;77.42;99945.58;1681822;83;25934;-81
2020/12/05 07:21:28;;;;;;;28.75;15.63;;;;;;;5.41;77.42;99945.74;1740622;81;28582;-81
2020/12/05 07:23:56;;;;;;;28.75;16.07;;;;;;;5.44;77.35;99948.08;1675321;81;25380;-81
2020/12/05 07:26:24;;;;;;;28.42;15.98;;;;;;;5.45;77.31;99964.84;1670979;83;25747;-81
2020/12/05 07:31:32;;;;;;;27.60;15.63;;;;;;;5.57;77.23;99965.30;1788998;79;25751;-80
2020/12/05 07:34:03;;;;;;;24.85;16.00;;;;;;;5.54;77.25;99972.30;1762038;79;25958;-81
2020/12/05 07:36:35;;;;;;;32.00;18.10;;;;;;;5.55;77.22;99969.46;1739710;80;27402;-80
2020/12/05 07:39:04;;;;;;;28.23;16.50;;;;;;;5.58;77.17;99982.91;1744247;81;26375;-81
2020/12/05 07:41:33;;;;;;;25.40;16.62;;;;;;;5.60;77.17;99987.55;1699515;81;26196;-81
2020/12/05 07:44:01;;;;;;;29.67;17.23;;;;;;;5.61;77.14;99988.70;1726708;80;25981;-81
2020/12/05 07:46:31;;;;;;;25.45;14.10;;;;;;;5.64;77.13;99986.21;1725142;80;25826;-81
2020/12/05 07:48:59;;;;;;;30.43;16.52;;;;;;;5.66;77.02;99997.50;1758644;80;28504;-80
2020/12/05 07:51:30;;;;;;;29.18;16.25;;;;;;;5.68;76.99;99999.48;1741226;80;25733;-80
2020/12/05 07:53:57;;;;;;;28.02;15.03;;;;;;;5.72;77.05;99999.47;1744786;80;25848;-80
2020/12/05 07:56:25;;;;;;;35.25;20.23;;;;;;;5.75;77.06;99999.94;1740849;80;25870;-80
2020/12/05 07:58:56;;;;;;;26.27;15.85;;;;;;;5.79;77.05;100000.45;1765054;80;25522;-79
2020/12/05 08:02:07;;;;;;;30.45;16.85;;;;;;;5.83;77.04;100008.41;1714124;80;27540;-80
2020/12/05 08:04:47;;;;;;;30.52;17.95;;;;;;;5.86;77.03;100011.58;1737773;80;25490;-81
2020/12/05 08:07:25;;;;;;;26.73;15.93;;;;;;;5.92;76.92;100021.52;1681086;83;25849;-81
2020/12/05 08:09:55;;;;;;;34.45;17.30;;;;;;;5.95;76.94;100021.19;1730154;81;25810;-81
2020/12/05 08:12:33;;;;;;;27.67;16.70;;;;;;;6.00;76.90;100015.36;1640442;83;25799;-80
2020/12/05 08:15:01;;;;;;;27.00;16.02;;;;;;;6.03;76.85;100007.06;1674956;83;27575;-81
2020/12/05 08:17:32;;;;;;;29.27;17.85;;;;;;;6.07;76.82;100013.16;1681389;83;26552;-80
2020/12/05 08:20:02;;;;;;;;;;;;;;;6.10;76.79;100014.16;1742015;81;25886;-80
2020/12/05 08:22:31;;;;;;;28.30;17.57;;;;;;;6.14;76.65;100019.45;1718990;82;25802;-80
2020/12/05 08:24:58;;;;;;;28.27;17.87;;;;;;;6.14;76.66;100012.81;1697408;82;25849;-81
2020/12/05 08:27:27;;;;;;;36.73;19.55;;;;;;;6.20;76.63;100018.77;1690755;83;27321;-81
2020/12/05 08:29:57;;;;;;;34.60;18.17;;;;;;;6.26;76.57;100010.61;1700950;82;25809;-81
2020/12/05 08:32:26;;;;;;;40.28;19.98;;;;;;;6.30;76.46;100013.25;1700382;82;25935;-81
2020/12/05 08:35:09;;;;;;;37.93;19.40;;;;;;;6.35;76.32;100010.07;1672722;83;25825;-81
2020/12/05 08:40:22;;;;;;;32.28;17.48;;;;;;;6.49;76.14;100019.47;1830092;77;25829;-81
2020/12/05 08:42:49;;;;;;;47.27;27.55;;;;;;;6.47;76.13;100013.98;1770227;78;25823;-82
2020/12/05 08:45:19;;;;;;;79.05;39.05;;;;;;;6.49;76.09;100016.81;1769176;80;26602;-81
2020/12/05 08:47:48;;;;;;;53.60;28.15;;;;;;;6.53;76.12;100013.28;1757926;79;26394;-80
2020/12/05 08:50:35;;;;;;;65.75;32.45;;;;;;;6.56;76.00;100012.95;1755348;81;25662;-81
2020/12/05 08:53:03;;;;;;;74.62;36.65;;;;;;;6.57;75.92;100013.25;1742044;81;25735;-80
2020/12/05 08:55:32;;;;;;;47.23;26.20;;;;;;;6.58;75.87;100021.09;1740818;78;26141;-79
2020/12/05 08:58:03;;;;;;;39.53;22.67;;;;;;;6.58;75.92;100017.59;1759157;81;27522;-80
2020/12/05 09:00:33;;;;;;;41.85;25.45;;;;;;;6.60;75.95;100016.41;1702743;81;26367;-80
2020/12/05 09:05:46;;;;;;;48.50;28.60;;;;;;;6.67;75.82;100011.22;1875882;74;26272;-79
2020/12/05 09:08:22;;;;;;;45.67;27.07;;;;;;;6.63;75.93;100012.05;1811301;77;25880;-80
2020/12/05 09:10:50;;;;;;;41.77;24.37;;;;;;;6.65;75.75;100034.00;1840116;76;26597;-79
2020/12/05 09:13:18;;;;;;;39.65;26.80;;;;;;;6.66;75.83;100031.67;1849488;75;25767;-79
2020/12/05 09:15:58;;;;;;;37.90;22.77;;;;;;;6.68;75.95;100035.48;1806267;77;25741;-79
2020/12/05 09:18:26;;;;;;;33.18;19.37;;;;;;;6.69;75.84;100039.29;1788252;75;25848;-79
2020/12/05 09:20:53;;;;;;;27.10;17.00;;;;;;;6.72;75.90;100035.45;1818568;75;25831;-78
2020/12/05 09:23:29;;;;;;;32.73;18.98;;;;;;;6.75;75.87;100041.28;1855181;75;27591;-79
2020/12/05 09:26:02;;;;;;;36.13;20.90;;;;;;;6.78;75.85;100042.73;1752596;80;26415;-79
2020/12/05 09:28:30;;;;;;;28.65;17.80;;;;;;;6.81;75.83;100043.73;1742734;78;25845;-79
2020/12/05 09:30:58;;;;;;;29.67;19.25;;;;;;;6.84;75.82;100057.50;1769053;79;25946;-79
2020/12/05 09:33:25;;;;;;;29.82;17.48;;;;;;;6.89;75.91;100057.81;1791195;78;25967;-79
2020/12/05 09:35:53;;;;;;;28.30;16.75;;;;;;;6.95;75.85;100057.59;1755667;79;28380;-79
2020/12/05 09:38:20;;;;;;;35.75;19.45;;;;;;;7.05;75.96;100057.37;1708586;79;25783;-78
2020/12/05 09:40:48;;;;;;;32.05;18.57;;;;;;;7.13;75.86;100058.15;1774306;77;25962;-81
2020/12/05 09:43:15;;;;;;;35.48;20.57;;;;;;;7.23;75.70;100060.59;1803925;77;25758;-79
2020/12/05 09:45:43;;;;;;;35.95;20.20;;;;;;;7.30;75.57;100066.84;1723886;79;26031;-80
2020/12/05 09:48:10;;;;;;;29.70;18.37;;;;;;;7.34;75.45;100055.66;1746197;80;27524;-84
2020/12/05 09:50:38;;;;;;;33.00;19.27;;;;;;;7.42;75.23;100054.77;1761205;77;25405;-78
2020/12/05 09:53:05;;;;;;;32.78;19.70;;;;;;;7.48;75.20;100056.71;1782873;79;25768;-78
2020/12/05 09:55:32;;;;;;;33.30;19.87;;;;;;;7.55;75.33;100065.62;1731556;79;26116;-80
2020/12/05 09:58:00;;;;;;;33.45;19.37;;;;;;;7.60;75.15;100070.75;1729964;79;25718;-80
2020/12/05 10:00:27;;;;;;;37.48;21.12;;;;;;;7.64;75.07;100068.55;1763652;80;28293;-81
2020/12/05 10:02:55;;;;;;;34.90;20.30;;;;;;;7.69;74.98;100072.34;1792794;78;25855;-80
2020/12/05 10:05:22;;;;;;;35.88;21.20;;;;;;;7.72;74.88;100077.79;1715980;79;26005;-80
2020/12/05 10:07:50;;;;;;;32.20;20.12;;;;;;;7.73;74.73;100081.63;1732462;78;26091;-80
2020/12/05 10:10:18;;;;;;;37.10;20.52;;;;;;;7.73;74.61;100078.13;1796266;78;25742;-80
2020/12/05 10:12:45;;;;;;;31.82;19.77;;;;;;;7.73;74.72;100071.46;1793120;78;28431;-79
2020/12/05 10:15:15;;;;;;;37.00;21.30;;;;;;;7.74;74.67;100069.14;1736936;80;26565;-79
2020/12/05 10:17:43;;;;;;;34.95;21.07;;;;;;;7.75;74.70;100070.78;1757454;78;25750;-80
2020/12/05 10:20:11;;;;;;;38.92;23.32;;;;;;;7.77;74.68;100062.09;1779671;79;25755;-80
2020/12/05 10:22:38;;;;;;;25.75;17.57;;;;;;;7.79;74.67;100070.23;1790545;78;26153;-80
2020/12/05 10:25:06;;;;;;;33.30;21.07;;;;;;;7.83;74.62;100073.36;1705139;79;27536;-80
2020/12/05 10:27:33;;;;;;;33.83;19.95;;;;;;;7.85;74.70;100081.20;1718112;78;25995;-79
2020/12/05 10:30:01;;;;;;;35.55;20.60;;;;;;;7.90;74.75;100077.45;1809100;77;25898;-79
2020/12/05 10:32:28;;;;;;;34.13;20.68;;;;;;;7.98;75.35;100076.87;1797468;79;25702;-80
2020/12/05 10:34:55;;;;;;;32.20;20.75;;;;;;;8.10;74.82;100075.92;1739369;77;25839;-79
2020/12/05 10:37:23;;;;;;;32.73;20.57;;;;;;;8.13;74.54;100073.70;1753461;79;28429;-79
2020/12/05 10:39:50;;;;;;;35.13;21.82;;;;;;;8.19;74.81;100077.50;1773601;77;26065;-80
2020/12/05 10:42:17;;;;;;;49.85;28.15;;;;;;;8.26;74.67;100071.76;1808364;77;25744;-80
2020/12/05 10:44:45;;;;;;;64.95;32.48;;;;;;;8.30;74.41;100069.03;1742528;77;25760;-80
2020/12/05 10:47:12;;;;;;;65.70;31.82;;;;;;;8.33;74.42;100065.52;1756353;77;26398;-80
2020/12/05 10:49:39;;;;;;;58.00;29.48;;;;;;;8.37;74.51;100073.47;1773813;77;27389;-80
2020/12/05 10:52:07;;;;;;;57.40;28.77;;;;;;;8.42;74.63;100076.92;1803121;77;26523;-79
2020/12/05 10:54:34;;;;;;;38.80;22.30;;;;;;;8.52;74.65;100074.78;1677860;81;25941;-79
2020/12/05 10:57:01;;;;;;;38.20;21.62;;;;;;;8.61;74.71;100075.50;1743635;80;25531;-79
2020/12/05 10:59:29;;;;;;;44.20;25.00;;;;;;;8.70;74.27;100074.39;1753435;79;26455;-80
2020/12/05 11:01:56;;;;;;;30.62;18.02;;;;;;;8.77;74.02;100073.97;1782093;79;27505;-81
2020/12/05 11:04:23;;;;;;;36.73;21.25;;;;;;;8.81;73.53;100071.24;1720918;80;26679;-80
2020/12/05 11:06:50;;;;;;;36.23;20.12;;;;;;;8.86;73.90;100064.80;1706266;80;25786;-80
2020/12/05 11:09:18;;;;;;;26.17;15.80;;;;;;;8.93;73.74;100075.90;1744872;80;25765;-79
2020/12/05 11:11:45;;;;;;;22.50;13.65;;;;;;;8.99;73.72;100070.30;1762847;80;25762;-80
2020/12/05 11:14:15;;;;;;;27.42;15.25;;;;;;;9.03;73.38;100070.23;1698833;81;28258;-79
2020/12/05 11:16:44;;;;;;;32.15;18.07;;;;;;;9.07;73.41;100077.69;1701914;80;25823;-79
2020/12/05 11:19:12;;;;;;;41.20;23.25;;;;;;;9.13;73.54;100073.44;1772043;80;26456;-80
2020/12/05 11:21:45;;;;;;;35.45;20.92;;;;;;;9.17;73.53;100064.83;1765731;80;26078;-79
2020/12/05 11:24:12;;;;;;;31.60;20.27;;;;;;;9.21;73.47;100075.98;1726672;80;25747;-80
2020/12/05 11:26:41;;;;;;;35.68;20.50;;;;;;;9.25;73.31;100066.56;1736422;80;27526;-80
2020/12/05 11:29:09;;;;;;;35.17;19.45;;;;;;;9.29;73.37;100067.83;1745691;80;25831;-79
2020/12/05 11:31:36;;;;;;;28.92;18.95;;;;;;;9.31;73.42;100069.30;1757622;80;25810;-81
2020/12/05 11:34:04;;;;;;;33.08;20.05;;;;;;;9.35;73.39;100072.41;1719021;80;26403;-79
2020/12/05 11:36:32;;;;;;;30.97;18.42;;;;;;;9.38;73.36;100069.36;1717419;80;26906;-80
2020/12/05 11:39:00;;;;;;;30.92;19.25;;;;;;;9.41;73.23;100073.51;1743336;80;27224;-79
2020/12/05 11:41:28;;;;;;;33.08;20.80;;;;;;;9.46;73.19;100078.58;1772746;80;25939;-80
2020/12/05 11:43:56;;;;;;;27.90;17.42;;;;;;;9.51;73.19;100084.69;1731670;80;25602;-80
2020/12/05 11:46:24;;;;;;;27.50;14.60;;;;;;;9.55;73.21;100088.63;1727385;80;25779;-80
2020/12/05 11:48:53;;;;;;;25.43;15.95;;;;;;;9.61;73.05;100094.04;1738221;80;25816;-79